createdAt,value
2022-11-05T00:45:01.521Z,969.30
2022-11-05T00:48:07.835Z,1073.43
2022-11-05T00:50:35.180Z,1024.28
2022-11-05T00:53:02.714Z,981.20
2022-11-05T00:55:38.934Z,965.97
2022-11-05T00:58:20.080Z,978.77
2022-11-05T01:00:58.321Z,977.00
2022-11-05T01:03:31.815Z,987.15
2022-11-05T01:06:00.294Z,1003.95
2022-11-05T01:08:28.038Z,997.97
2022-11-05T01:10:58.834Z,984.85
2022-11-05T01:13:28.993Z,1032.00
2022-11-05T01:15:56.962Z,995.50
2022-11-05T01:18:25.232Z,992.05
2022-11-05T01:20:52.722Z,979.50
2022-11-05T01:23:21.426Z,982.58
2022-11-05T01:25:48.840Z,981.80
2022-11-05T01:28:16.030Z,981.28
2022-11-05T01:30:46.474Z,995.90
2022-11-05T01:33:14.985Z,983.33
2022-11-05T01:35:42.346Z,977.00
2022-11-05T01:38:09.459Z,981.53
2022-11-05T01:40:36.628Z,913.72
2022-11-05T01:43:03.761Z,914.58
2022-11-05T01:45:32.242Z,643.78
2022-11-05T01:48:08.602Z,2.80
2022-11-05T01:50:59.266Z,71.18
2022-11-05T01:53:41.825Z,2.95
2022-11-05T01:56:15.029Z,2.38
2022-11-05T01:59:00.482Z,2.65
2022-11-05T02:01:27.972Z,5.00
2022-11-05T02:03:58.749Z,3.33
2022-11-05T02:06:29.544Z,17.05
2022-11-05T02:08:59.385Z,10.35
2022-11-05T02:11:26.685Z,2.85
2022-11-05T02:13:53.881Z,2.63
2022-11-05T02:16:43.484Z,3.23
2022-11-05T02:19:29.061Z,2.30
2022-11-05T02:21:59.453Z,2.63
2022-11-05T02:24:41.677Z,2.38
2022-11-05T02:27:08.772Z,2.63
2022-11-05T02:29:41.817Z,2.20
2022-11-05T02:32:11.861Z,3.00
2022-11-05T02:37:27.109Z,1105.82
2022-11-05T02:40:29.026Z,1131.88
2022-11-05T02:42:56.230Z,1123.82
2022-11-05T02:45:23.292Z,612.35
2022-11-05T02:47:56.358Z,1095.05
2022-11-05T02:50:27.395Z,1016.22
2022-11-05T02:52:54.560Z,1123.53
2022-11-05T02:55:49.008Z,1115.53
2022-11-05T02:58:16.535Z,1098.25
2022-11-05T03:00:43.697Z,1141.25
2022-11-05T03:04:04.431Z,1117.03
2022-11-05T03:06:59.833Z,1132.72
2022-11-05T03:09:33.030Z,1106.97
2022-11-05T03:12:43.170Z,1112.57
2022-11-05T03:15:20.345Z,1086.85
2022-11-05T03:17:47.552Z,1106.50
2022-11-05T03:20:37.304Z,1104.80
2022-11-05T03:23:10.833Z,1128.40
2022-11-05T03:25:43.935Z,1136.28
2022-11-05T03:28:12.262Z,1132.77
2022-11-05T03:30:41.568Z,1156.90
2022-11-05T03:33:14.937Z,1160.60
2022-11-05T03:35:50.509Z,1142.45
2022-11-05T03:38:22.905Z,1149.17
2022-11-05T03:43:20.151Z,1103.60
2022-11-05T03:45:59.490Z,1122.00
2022-11-05T03:48:29.269Z,1131.20
2022-11-05T03:51:19.365Z,1166.32
2022-11-05T03:53:57.599Z,1135.53
2022-11-05T03:56:27.629Z,948.83
2022-11-05T03:58:58.979Z,1139.22
2022-11-05T04:01:27.182Z,1128.07
2022-11-05T04:03:54.527Z,1114.45
2022-11-05T04:06:40.273Z,1124.47
2022-11-05T04:33:02.755Z,3.20
2022-11-05T04:38:14.911Z,3.80
2022-11-05T04:40:42.458Z,1.95
2022-11-05T04:43:15.189Z,2.33
2022-11-05T04:45:45.106Z,1.50
2022-11-05T04:48:12.886Z,2.22
2022-11-05T04:50:40.048Z,2.42
2022-11-05T04:53:07.290Z,4.05
2022-11-05T04:55:34.445Z,2.00
2022-11-05T04:58:01.590Z,1.98
2022-11-05T05:00:28.934Z,2.15
2022-11-05T05:02:56.168Z,2.53
2022-11-05T05:05:25.645Z,1.70
2022-11-05T05:07:52.778Z,1.70
2022-11-05T05:10:20.022Z,2.22
2022-11-05T05:12:48.382Z,2.33
2022-11-05T05:15:15.655Z,2.65
2022-11-05T05:17:42.804Z,2.88
2022-11-05T05:20:28.445Z,5.28
2022-11-05T05:22:56.124Z,1.93
2022-11-05T05:25:23.699Z,2.75
2022-11-05T05:27:50.958Z,1.73
2022-11-05T05:30:18.363Z,2.47
2022-11-05T05:32:45.561Z,3.40
2022-11-05T05:35:12.774Z,2.40
2022-11-05T05:37:39.974Z,3.08
2022-11-05T05:40:07.665Z,2.00
2022-11-05T05:42:38.851Z,2.80
2022-11-05T05:45:10.190Z,3.28
2022-11-05T05:47:37.470Z,3.13
2022-11-05T05:50:04.822Z,3.20
2022-11-05T05:52:32.432Z,1.67
2022-11-05T05:54:59.609Z,2.80
2022-11-05T05:57:28.709Z,2.65
2022-11-05T05:59:56.935Z,1.85
2022-11-05T06:02:24.216Z,3.58
2022-11-05T06:04:52.514Z,1.83
2022-11-05T06:07:20.682Z,2.23
2022-11-05T06:09:48.748Z,2.70
2022-11-05T06:12:16.931Z,1.67
2022-11-05T06:14:45.102Z,2.87
2022-11-05T06:17:12.274Z,2.42
2022-11-05T06:19:41.512Z,3.30
2022-11-05T06:22:10.847Z,2.05
2022-11-05T06:24:39.957Z,2.03
2022-11-05T06:27:07.088Z,3.45
2022-11-05T06:29:36.315Z,2.63
2022-11-05T06:32:05.640Z,2.90
2022-11-05T06:34:32.839Z,2.92
2022-11-05T06:37:00.305Z,2.13
2022-11-05T06:39:30.702Z,2.22
2022-11-05T06:42:18.068Z,3.38
2022-11-05T06:44:49.664Z,1.73
2022-11-05T06:47:16.879Z,2.53
2022-11-05T06:49:45.057Z,3.85
2022-11-05T06:52:12.880Z,2.95
2022-11-05T06:54:42.469Z,3.65
2022-11-05T06:57:10.645Z,2.05
2022-11-05T06:59:39.521Z,2.20
2022-11-05T07:02:13.419Z,2.83
2022-11-05T07:04:42.727Z,2.67
2022-11-05T07:07:11.048Z,2.47
2022-11-05T07:09:40.439Z,3.03
2022-11-05T07:12:08.027Z,2.38
2022-11-05T07:14:36.331Z,3.42
2022-11-05T07:17:04.554Z,2.50
2022-11-05T07:19:32.770Z,3.20
2022-11-05T07:21:59.925Z,2.90
2022-11-05T07:24:28.320Z,5.80
2022-11-05T07:26:57.175Z,3.77
2022-11-05T07:29:25.360Z,2.33
2022-11-05T07:31:52.584Z,2.90
2022-11-05T07:34:19.694Z,3.20
2022-11-05T07:36:48.064Z,3.80
2022-11-05T07:39:15.359Z,4.20
2022-11-05T07:41:42.532Z,4.50
2022-11-05T07:44:09.889Z,4.13
2022-11-05T07:46:37.030Z,2.92
2022-11-05T07:49:04.295Z,5.07
2022-11-05T07:51:31.413Z,3.75
2022-11-05T07:53:59.597Z,2.53
2022-11-05T07:56:26.787Z,3.40
2022-11-05T07:58:53.884Z,4.40
2022-11-05T08:01:22.278Z,6.32
2022-11-05T08:03:49.598Z,5.43
2022-11-05T08:06:18.839Z,4.85
2022-11-05T08:08:45.992Z,5.00
2022-11-05T08:11:14.170Z,5.90
2022-11-05T08:13:42.731Z,3.75
2022-11-05T08:16:11.970Z,4.43
2022-11-05T08:18:40.195Z,5.30
2022-11-05T08:21:08.762Z,4.00
2022-11-05T08:23:35.993Z,4.78
2022-11-05T08:26:04.043Z,4.07
2022-11-05T08:28:36.884Z,3.13
2022-11-05T08:31:05.210Z,3.77
2022-11-05T08:33:33.078Z,4.38
2022-11-05T08:36:04.687Z,3.95
2022-11-05T08:38:31.991Z,3.30
2022-11-05T08:41:00.451Z,3.30
2022-11-05T08:43:28.739Z,2.78
2022-11-05T08:45:55.931Z,3.27
2022-11-05T08:48:23.291Z,2.40
2022-11-05T08:50:56.209Z,2.70
2022-11-05T08:53:23.396Z,2.93
2022-11-05T08:55:51.447Z,3.28
2022-11-05T08:58:20.613Z,4.22
2022-11-05T09:00:49.744Z,2.63
2022-11-05T09:03:17.334Z,4.65
2022-11-05T09:05:45.719Z,2.10
2022-11-05T09:08:14.928Z,2.53
2022-11-05T09:10:43.455Z,2.20
2022-11-05T09:13:17.929Z,2.92
2022-11-05T09:15:46.083Z,2.47
2022-11-05T09:18:14.697Z,3.45
2022-11-05T09:20:42.069Z,2.65
2022-11-05T09:23:11.448Z,3.28
2022-11-05T09:25:39.007Z,2.88
2022-11-05T09:28:18.007Z,3.53
2022-11-05T09:30:50.031Z,2.33
2022-11-05T09:33:19.224Z,2.05
2022-11-05T09:35:46.689Z,2.63
2022-11-05T09:38:13.956Z,3.70
2022-11-05T09:40:49.960Z,2.57
2022-11-05T09:43:19.661Z,2.92
2022-11-05T09:45:50.084Z,1.90
2022-11-05T09:48:18.442Z,2.63
2022-11-05T09:50:46.182Z,2.70
2022-11-05T09:53:18.668Z,2.72
2022-11-05T09:55:53.009Z,3.50
2022-11-05T09:58:43.528Z,3.83
2022-11-05T10:01:23.574Z,3.80
2022-11-05T10:03:53.095Z,4.32
2022-11-05T10:06:24.086Z,3.30
2022-11-05T10:09:17.997Z,3.05
2022-11-05T10:11:52.251Z,4.38
2022-11-05T10:14:22.050Z,3.53
2022-11-05T10:16:56.520Z,2.65
2022-11-05T10:19:28.811Z,4.50
2022-11-05T10:22:10.485Z,2.92
2022-11-05T10:24:38.628Z,3.10
2022-11-05T10:27:06.036Z,3.60
2022-11-05T10:29:34.971Z,2.40
2022-11-05T10:32:05.456Z,3.95
2022-11-05T10:34:35.998Z,3.22
2022-11-05T10:37:03.579Z,3.70
2022-11-05T10:39:31.286Z,3.35
2022-11-05T10:42:44.334Z,3.85
2022-11-05T10:45:14.284Z,3.03
2022-11-05T10:48:02.256Z,2.47
2022-11-05T10:50:31.387Z,2.45
2022-11-05T10:53:00.463Z,2.63
2022-11-05T10:55:31.467Z,2.97
2022-11-05T10:58:09.257Z,3.20
2022-11-05T11:00:36.739Z,3.38
2022-11-05T11:03:05.632Z,3.17
2022-11-05T11:05:38.182Z,2.58
2022-11-05T11:08:11.055Z,3.08
2022-11-05T11:10:42.205Z,2.22
2022-11-05T11:14:06.766Z,2.85
2022-11-05T11:16:38.728Z,2.08
2022-11-05T11:19:35.670Z,3.53
2022-11-05T11:22:05.709Z,3.10
2022-11-05T11:24:55.185Z,2.80
2022-11-05T11:27:23.657Z,3.28
2022-11-05T11:29:55.737Z,2.50
2022-11-05T11:32:23.013Z,2.80
2022-11-05T11:34:52.833Z,2.88
2022-11-05T11:37:27.830Z,3.40
2022-11-05T11:39:59.632Z,3.42
2022-11-05T11:42:32.280Z,2.85
2022-11-05T11:45:04.201Z,2.10
2022-11-05T11:47:32.689Z,2.85
2022-11-05T11:50:02.037Z,2.83
2022-11-05T11:52:37.327Z,2.35
2022-11-05T11:55:23.111Z,3.13
2022-11-05T11:57:57.880Z,2.67
2022-11-05T12:00:26.832Z,2.00
2022-11-05T12:03:02.138Z,2.73
2022-11-05T12:05:43.033Z,2.28
2022-11-05T12:08:19.059Z,2.00
2022-11-05T12:10:55.391Z,2.97
2022-11-05T12:13:22.659Z,2.83
2022-11-05T12:15:51.708Z,3.83
2022-11-05T12:18:35.234Z,2.80
2022-11-05T12:21:09.365Z,1.87
2022-11-05T12:23:52.196Z,2.55
2022-11-05T12:26:20.334Z,2.07
2022-11-05T12:29:17.899Z,3.13
2022-11-05T12:32:13.330Z,1.92
2022-11-05T12:35:13.187Z,4.28
2022-11-05T12:37:53.568Z,3.63
2022-11-05T12:40:57.794Z,2.72
2022-11-05T12:43:34.070Z,2.75
2022-11-05T12:46:17.366Z,2.15
2022-11-05T12:49:01.166Z,2.43
2022-11-05T12:51:40.457Z,1.98
2022-11-05T12:54:10.398Z,2.23
2022-11-05T12:56:59.307Z,2.47
2022-11-05T12:59:26.456Z,1.30
2022-11-05T13:02:07.896Z,2.28
2022-11-05T13:05:00.979Z,1.85
2022-11-05T13:07:35.719Z,3.47
2022-11-05T13:10:28.487Z,2.70
2022-11-05T13:13:08.081Z,2.60
2022-11-05T13:15:40.614Z,2.67
2022-11-05T13:18:12.839Z,2.22
2022-11-05T13:20:42.027Z,1.50
2022-11-05T13:23:09.466Z,2.50
2022-11-05T13:25:41.784Z,2.75
2022-11-05T13:28:47.293Z,2.17
2022-11-05T13:31:16.428Z,2.13
2022-11-05T13:33:46.332Z,2.42
2022-11-05T13:36:43.742Z,3.38
2022-11-05T13:39:15.320Z,2.07
2022-11-05T13:41:48.354Z,3.80
2022-11-05T13:44:21.696Z,2.53
2022-11-05T13:46:52.765Z,1.88
2022-11-05T13:49:25.716Z,2.63
2022-11-05T13:52:01.437Z,1.95
2022-11-05T13:54:46.702Z,3.75
2022-11-05T13:57:37.571Z,3.25
2022-11-05T14:00:12.412Z,1.75
2022-11-05T14:02:42.569Z,1.83
2022-11-05T14:05:22.620Z,1.97
2022-11-05T14:07:49.936Z,2.58
2022-11-05T14:10:17.136Z,1.83
2022-11-05T14:12:50.361Z,1.92
2022-11-05T14:15:26.357Z,1.90
2022-11-05T14:17:54.294Z,1.58
2022-11-05T14:20:25.476Z,2.35
2022-11-05T14:22:53.186Z,1.65
2022-11-05T14:25:20.504Z,1.65
2022-11-05T14:27:49.181Z,2.13
2022-11-05T14:30:42.168Z,1.92
2022-11-05T14:33:31.169Z,1.90
2022-11-05T14:36:16.817Z,2.00
2022-11-05T14:38:47.961Z,2.27
2022-11-05T14:41:15.242Z,3.13
2022-11-05T14:43:54.369Z,2.10
2022-11-05T14:46:21.652Z,2.40
2022-11-05T14:48:51.945Z,2.27
2022-11-05T14:51:25.936Z,3.38
2022-11-05T14:54:01.746Z,2.00
2022-11-05T14:56:29.188Z,2.63
2022-11-05T14:59:15.073Z,3.17
2022-11-05T15:01:42.721Z,2.55
2022-11-05T15:04:19.148Z,1.23
2022-11-05T15:07:05.762Z,2.22
2022-11-05T15:09:42.229Z,2.42
2022-11-05T15:12:17.212Z,2.10
2022-11-05T15:14:58.716Z,2.17
2022-11-05T15:17:30.628Z,2.60
2022-11-05T15:20:01.368Z,1.92
2022-11-05T15:22:35.094Z,1.67
2022-11-05T15:25:03.686Z,2.35
2022-11-05T15:27:30.836Z,2.35
2022-11-05T15:29:58.135Z,1.98
2022-11-05T15:32:27.944Z,1.63
2022-11-05T15:34:56.276Z,1.88
2022-11-05T15:37:27.620Z,2.05
2022-11-05T15:39:55.706Z,1.60
2022-11-05T15:42:24.205Z,1.60
2022-11-05T15:44:52.606Z,1.60
2022-11-05T15:47:22.898Z,2.17
2022-11-05T15:49:52.572Z,3.07
2022-11-05T15:52:22.114Z,2.63
2022-11-05T15:55:07.233Z,2.22
2022-11-05T15:57:39.311Z,1.55
2022-11-05T16:00:08.149Z,2.75
2022-11-05T16:02:36.581Z,1.92
2022-11-05T16:05:06.665Z,2.40
2022-11-05T16:07:34.884Z,1.40
2022-11-05T16:10:02.455Z,1.90
2022-11-05T16:12:34.075Z,2.53
2022-11-05T16:15:01.228Z,2.95
2022-11-05T16:17:31.557Z,1.85
2022-11-05T16:19:58.870Z,2.50
2022-11-05T16:22:26.325Z,1.85
2022-11-05T16:24:53.521Z,3.25
2022-11-05T16:27:21.996Z,3.63
2022-11-05T16:29:51.376Z,1.77
2022-11-05T16:32:31.028Z,2.00
2022-11-05T16:35:00.520Z,1.88
2022-11-05T16:37:28.135Z,2.22
2022-11-05T16:39:56.276Z,2.55
2022-11-05T16:42:27.460Z,1.70
2022-11-05T16:44:55.270Z,2.33
2022-11-05T16:47:23.046Z,1.98
2022-11-05T16:49:50.465Z,2.30
2022-11-05T16:52:17.640Z,2.17
2022-11-05T16:54:44.930Z,2.05
2022-11-05T16:57:32.112Z,1.88
2022-11-05T17:00:01.119Z,1.90
2022-11-05T17:02:28.854Z,2.03
2022-11-05T17:04:56.265Z,2.27
2022-11-05T17:07:23.405Z,1.70
2022-11-05T17:09:50.752Z,1.77
2022-11-05T17:12:17.816Z,1.60
2022-11-05T17:14:45.028Z,2.50
2022-11-05T17:17:12.185Z,1.70
2022-11-05T17:19:42.305Z,1.75
2022-11-05T17:22:09.745Z,2.13
2022-11-05T17:24:37.412Z,2.42
2022-11-05T17:27:04.545Z,2.08
2022-11-05T17:29:31.717Z,2.00
2022-11-05T17:31:58.845Z,1.88
2022-11-05T17:34:26.044Z,1.85
2022-11-05T17:36:53.132Z,1.83
2022-11-05T17:39:20.282Z,1.88
2022-11-05T17:41:47.862Z,2.40
2022-11-05T17:44:15.001Z,2.28
2022-11-05T17:46:42.141Z,2.55
2022-11-05T17:49:09.317Z,2.60
2022-11-05T17:51:36.496Z,2.08
2022-11-05T17:54:04.254Z,2.33
2022-11-05T17:56:34.933Z,2.42
2022-11-05T17:59:04.017Z,1.92
2022-11-05T18:01:43.079Z,2.03
2022-11-05T18:04:10.557Z,3.17
2022-11-05T18:06:38.213Z,2.40
2022-11-05T18:09:06.764Z,3.72
2022-11-05T18:11:34.564Z,2.70
2022-11-05T18:14:01.907Z,1.73
2022-11-05T18:16:29.313Z,2.20
2022-11-05T18:18:57.020Z,1.98
2022-11-05T18:21:24.203Z,2.92
2022-11-05T18:23:51.418Z,2.42
2022-11-05T18:26:19.001Z,2.20
2022-11-05T18:28:46.142Z,2.63
2022-11-05T18:31:18.118Z,1.73
2022-11-05T18:33:45.742Z,1.58
2022-11-05T18:36:22.990Z,1.60
2022-11-05T18:38:50.120Z,2.13
2022-11-05T18:41:17.585Z,3.70
2022-11-05T18:43:44.820Z,1.95
2022-11-05T18:46:29.405Z,1.95
2022-11-05T18:48:59.905Z,2.28
2022-11-05T18:51:27.578Z,1.67
2022-11-05T18:53:55.343Z,2.45
2022-11-05T18:56:22.824Z,1.90
2022-11-05T18:58:49.961Z,1.73
2022-11-05T19:01:23.589Z,2.20
2022-11-05T19:03:51.372Z,1.90
2022-11-05T19:06:18.862Z,2.00
2022-11-05T19:08:47.049Z,2.45
2022-11-05T19:11:15.923Z,1.65
2022-11-05T19:13:43.285Z,2.22
2022-11-05T19:16:12.240Z,2.05
2022-11-05T19:18:39.691Z,2.93
2022-11-05T19:21:10.437Z,2.17
2022-11-05T19:23:38.960Z,1.95
2022-11-05T19:26:17.081Z,2.90
2022-11-05T19:28:44.374Z,2.47
2022-11-05T19:31:14.778Z,1.95
2022-11-05T19:33:42.416Z,2.05
2022-11-05T19:36:09.968Z,2.50
2022-11-05T19:38:37.238Z,3.10
2022-11-05T19:41:14.150Z,2.75
2022-11-05T19:43:42.029Z,1.60
2022-11-05T19:46:13.808Z,1.73
2022-11-05T19:48:41.412Z,1.40
2022-11-05T19:51:10.489Z,2.00
2022-11-05T19:53:38.857Z,2.47
2022-11-05T19:56:17.144Z,1.73
2022-11-05T19:58:44.663Z,2.97
2022-11-05T20:01:12.725Z,1.70
2022-11-05T20:03:40.170Z,2.90
2022-11-05T20:06:09.038Z,2.55
2022-11-05T20:08:47.857Z,1.85
2022-11-05T20:11:24.125Z,3.17
2022-11-05T20:13:51.261Z,2.80
2022-11-05T20:16:23.922Z,1.40
2022-11-05T20:18:51.096Z,2.20
2022-11-05T20:21:18.366Z,2.22
2022-11-05T20:23:45.821Z,1.92
2022-11-05T20:26:13.662Z,2.40
2022-11-05T20:28:42.556Z,2.28
2022-11-05T20:31:10.773Z,1.90
2022-11-05T20:33:38.755Z,2.00
2022-11-05T20:36:09.649Z,1.83
2022-11-05T20:38:36.756Z,2.22
2022-11-05T20:41:08.365Z,1.83
2022-11-05T20:43:35.914Z,2.42
2022-11-05T20:46:03.258Z,2.60
2022-11-05T20:48:31.803Z,1.88
2022-11-05T20:51:00.458Z,2.70
2022-11-05T20:53:27.628Z,3.10
2022-11-05T20:55:54.867Z,2.95
2022-11-05T20:58:22.037Z,3.03
2022-11-05T21:00:51.136Z,2.37
2022-11-05T21:03:18.599Z,2.10
2022-11-05T21:05:49.069Z,1.70
2022-11-05T21:08:16.237Z,1.80
2022-11-05T21:10:48.542Z,1.95
2022-11-05T21:13:18.173Z,2.50
2022-11-05T21:15:50.130Z,2.97
2022-11-05T21:18:18.254Z,2.50
2022-11-05T21:20:46.093Z,3.22
2022-11-05T21:23:13.713Z,3.22
2022-11-05T21:25:41.616Z,1.97
2022-11-05T21:28:09.207Z,2.88
2022-11-05T21:30:41.708Z,3.08
2022-11-05T21:33:09.613Z,2.30
2022-11-05T21:35:40.962Z,2.42
2022-11-05T21:38:08.172Z,3.22
2022-11-05T21:40:35.321Z,2.40
2022-11-05T21:43:02.496Z,2.38
2022-11-05T21:45:29.766Z,3.13
2022-11-05T21:47:57.110Z,2.13
2022-11-05T21:50:44.679Z,1.83
2022-11-05T21:53:34.526Z,2.40
2022-11-05T21:56:38.841Z,2.33
2022-11-05T21:59:25.211Z,2.45
2022-11-05T22:02:01.241Z,2.15
2022-11-05T22:04:30.466Z,2.73
2022-11-05T22:06:57.973Z,2.70
2022-11-05T22:09:25.573Z,2.88
2022-11-05T22:11:53.045Z,2.90
2022-11-05T22:14:20.233Z,3.38
2022-11-05T22:16:47.684Z,2.38
2022-11-05T22:19:14.857Z,2.15
2022-11-05T22:21:42.101Z,3.33
2022-11-05T22:24:09.390Z,3.13
2022-11-05T22:26:37.491Z,3.53
2022-11-05T22:29:05.268Z,2.38
2022-11-05T22:31:36.684Z,2.88
2022-11-05T22:34:04.684Z,2.73
2022-11-05T22:36:32.452Z,2.40
2022-11-05T22:38:59.524Z,2.22
2022-11-05T22:41:27.059Z,2.75
2022-11-05T22:43:54.490Z,2.28
2022-11-05T22:46:23.916Z,2.25
2022-11-05T22:48:51.177Z,1.98
2022-11-05T22:51:21.065Z,3.10
2022-11-05T22:53:48.334Z,2.05
2022-11-05T22:56:21.097Z,2.80
2022-11-05T22:58:48.771Z,6.50
2022-11-05T23:01:16.435Z,2.15
2022-11-05T23:03:45.534Z,2.70
2022-11-05T23:06:39.884Z,2.72
2022-11-05T23:09:34.028Z,2.30
2022-11-05T23:12:01.212Z,3.20
2022-11-05T23:14:29.561Z,3.53
2022-11-05T23:17:15.214Z,3.03
2022-11-05T23:20:01.219Z,3.50
2022-11-05T23:22:48.361Z,2.97
2022-11-05T23:25:18.287Z,3.70
2022-11-05T23:27:46.584Z,2.17
2022-11-05T23:30:15.825Z,2.50
2022-11-05T23:32:43.919Z,2.38
2022-11-05T23:35:11.090Z,2.53
2022-11-05T23:37:57.015Z,3.35
2022-11-05T23:40:26.749Z,2.37
2022-11-05T23:43:13.059Z,2.55
2022-11-05T23:45:47.872Z,2.88
2022-11-05T23:48:21.034Z,2.38
2022-11-05T23:50:51.024Z,4.03
2022-11-05T23:53:18.461Z,2.78
2022-11-05T23:55:45.592Z,2.83
2022-11-05T23:58:13.218Z,3.67
